createdAt,value
2019-03-24T00:00:05.335Z,8.10
2019-03-24T00:01:05.350Z,7.20
2019-03-24T00:02:05.362Z,8.10
2019-03-24T00:03:05.377Z,7.70
2019-03-24T00:04:05.386Z,7.70
2019-03-24T00:05:05.405Z,7.70
2019-03-24T00:06:05.410Z,7.70
2019-03-24T00:07:05.434Z,7.50
2019-03-24T00:08:05.433Z,7.60
2019-03-24T00:09:05.443Z,8.30
2019-03-24T00:10:05.459Z,8.50
2019-03-24T00:11:05.472Z,7.60
2019-03-24T00:12:05.491Z,7.90
2019-03-24T00:13:05.504Z,8.20
2019-03-24T00:14:05.513Z,7.70
2019-03-24T00:15:05.533Z,7.60
2019-03-24T00:16:05.545Z,8.10
2019-03-24T00:17:05.579Z,7.90
2019-03-24T00:18:05.561Z,7.70
2019-03-24T00:19:05.570Z,7.70
2019-03-24T00:20:05.581Z,8.10
2019-03-24T00:21:05.592Z,7.80
2019-03-24T00:22:05.605Z,7.70
2019-03-24T00:23:05.631Z,7.70
2019-03-24T00:24:05.626Z,8.10
2019-03-24T00:25:05.653Z,8.40
2019-03-24T00:26:05.657Z,7.80
2019-03-24T00:27:05.666Z,8.60
2019-03-24T00:28:05.676Z,7.70
2019-03-24T00:29:05.690Z,8.00
2019-03-24T00:30:05.713Z,7.70
2019-03-24T00:31:05.726Z,7.70
2019-03-24T00:32:05.727Z,8.30
2019-03-24T00:33:05.738Z,7.80
2019-03-24T00:34:05.748Z,7.20
2019-03-24T00:35:05.787Z,7.60
2019-03-24T00:36:05.780Z,7.60
2019-03-24T00:37:05.795Z,7.60
2019-03-24T00:38:05.795Z,7.90
2019-03-24T00:39:05.816Z,7.50
2019-03-24T00:40:05.822Z,8.00
2019-03-24T00:41:05.846Z,7.40
2019-03-24T00:42:05.846Z,7.70
2019-03-24T00:43:05.867Z,7.40
2019-03-24T00:44:05.886Z,8.30
2019-03-24T00:45:05.883Z,7.80
2019-03-24T00:46:05.901Z,7.70
2019-03-24T00:47:05.909Z,7.60
2019-03-24T00:48:05.926Z,7.20
2019-03-24T00:49:05.933Z,7.40
2019-03-24T00:50:05.961Z,7.20
2019-03-24T00:51:05.955Z,7.50
2019-03-24T00:52:05.973Z,8.00
2019-03-24T00:53:05.986Z,7.30
2019-03-24T00:54:06.006Z,6.90
2019-03-24T00:55:06.012Z,7.40
2019-03-24T00:56:06.014Z,7.50
2019-03-24T00:57:06.024Z,7.60
2019-03-24T00:58:06.041Z,7.40
2019-03-24T00:59:06.052Z,7.10
2019-03-24T01:00:06.070Z,6.60
2019-03-24T01:01:06.076Z,7.40
2019-03-24T01:02:06.096Z,6.30
2019-03-24T01:03:06.099Z,7.00
2019-03-24T01:04:06.124Z,6.90
2019-03-24T01:05:06.130Z,7.20
2019-03-24T01:06:06.147Z,6.10
2019-03-24T01:07:06.156Z,6.80
2019-03-24T01:08:06.176Z,6.50
2019-03-24T01:09:06.180Z,6.70
2019-03-24T01:10:06.189Z,7.20
2019-03-24T01:11:06.197Z,6.80
2019-03-24T01:12:06.206Z,6.60
2019-03-24T01:13:06.220Z,6.30
2019-03-24T01:14:06.230Z,6.90
2019-03-24T01:15:06.245Z,6.30
2019-03-24T01:16:06.256Z,6.20
2019-03-24T01:17:06.271Z,6.80
2019-03-24T01:18:06.284Z,6.10
2019-03-24T01:19:06.293Z,6.10
2019-03-24T01:20:06.321Z,6.10
2019-03-24T01:21:06.324Z,6.10
2019-03-24T01:22:06.328Z,6.10
2019-03-24T01:23:06.340Z,6.60
2019-03-24T01:24:06.354Z,6.30
2019-03-24T01:25:06.368Z,5.70
2019-03-24T01:26:06.378Z,6.40
2019-03-24T01:27:06.390Z,5.80
2019-03-24T01:28:06.399Z,6.70
2019-03-24T01:29:06.416Z,6.80
2019-03-24T01:30:06.430Z,6.10
2019-03-24T01:31:06.435Z,5.80
2019-03-24T01:32:06.452Z,6.30
2019-03-24T01:33:06.476Z,6.10
2019-03-24T01:34:06.472Z,6.60
2019-03-24T01:35:06.486Z,6.00
2019-03-24T01:36:06.512Z,6.50
2019-03-24T01:37:06.520Z,6.50
2019-03-24T01:38:06.518Z,6.30
2019-03-24T01:39:06.549Z,6.20
2019-03-24T01:40:06.546Z,6.30
2019-03-24T01:41:08.113Z,5.40
2019-03-24T01:42:06.575Z,6.30
2019-03-24T01:43:06.583Z,6.00
2019-03-24T01:44:06.597Z,5.50
2019-03-24T01:45:06.610Z,5.60
2019-03-24T01:46:06.615Z,6.30
2019-03-24T01:47:06.643Z,6.10
2019-03-24T01:48:06.657Z,5.50
2019-03-24T01:49:06.659Z,5.00
2019-03-24T01:50:06.665Z,6.20
2019-03-24T01:51:06.689Z,5.40
2019-03-24T01:52:06.698Z,6.10
2019-03-24T01:53:06.770Z,6.00
2019-03-24T01:54:06.712Z,6.20
2019-03-24T01:55:06.728Z,5.50
2019-03-24T01:56:06.739Z,6.10
2019-03-24T01:57:06.750Z,6.30
2019-03-24T01:58:06.762Z,6.30
2019-03-24T01:59:06.775Z,5.80
2019-03-24T02:00:06.789Z,6.00
2019-03-24T02:01:06.804Z,6.60
2019-03-24T02:02:06.829Z,6.60
2019-03-24T02:03:06.822Z,5.90
2019-03-24T02:04:06.843Z,6.10
2019-03-24T02:05:06.870Z,6.80
2019-03-24T02:06:06.854Z,6.30
2019-03-24T02:07:06.876Z,5.60
2019-03-24T02:08:06.882Z,6.40
2019-03-24T02:09:06.903Z,5.60
2019-03-24T02:11:06.930Z,5.40
2019-03-24T02:12:06.935Z,6.30
2019-03-24T02:13:06.943Z,6.30
2019-03-24T02:14:06.953Z,6.20
2019-03-24T02:15:06.961Z,6.30
2019-03-24T02:16:09.634Z,6.10
2019-03-24T02:17:06.990Z,6.70
2019-03-24T02:18:07.010Z,6.30
2019-03-24T02:19:07.041Z,6.60
2019-03-24T02:20:07.025Z,6.60
2019-03-24T02:21:07.035Z,6.50
2019-03-24T02:22:07.050Z,6.50
2019-03-24T02:23:07.057Z,6.40
2019-03-24T02:24:07.069Z,5.70
2019-03-24T02:25:07.104Z,6.80
2019-03-24T02:26:07.108Z,5.80
2019-03-24T02:27:07.109Z,5.90
2019-03-24T02:28:07.125Z,6.20
2019-03-24T02:29:07.132Z,6.10
2019-03-24T02:30:07.143Z,6.10
2019-03-24T02:31:07.151Z,5.90
2019-03-24T02:32:07.176Z,6.40
2019-03-24T02:33:07.188Z,6.80
2019-03-24T02:34:07.190Z,6.30
2019-03-24T02:35:07.202Z,6.70
2019-03-24T02:36:07.215Z,5.90
2019-03-24T02:37:07.242Z,5.90
2019-03-24T02:38:07.238Z,6.10
2019-03-24T02:39:07.247Z,5.90
2019-03-24T02:40:07.335Z,6.20
2019-03-24T02:41:07.281Z,6.70
2019-03-24T02:42:07.286Z,5.70
2019-03-24T02:43:07.299Z,6.00
2019-03-24T02:44:07.309Z,6.40
2019-03-24T02:45:07.320Z,6.80
2019-03-24T02:46:07.351Z,6.40
2019-03-24T02:47:07.349Z,6.00
2019-03-24T02:48:07.383Z,6.20
2019-03-24T02:49:07.368Z,6.70
2019-03-24T02:50:07.374Z,6.20
2019-03-24T02:51:07.393Z,6.20
2019-03-24T02:52:07.420Z,5.90
2019-03-24T02:53:07.410Z,6.70
2019-03-24T02:54:07.421Z,5.80
2019-03-24T02:55:07.459Z,6.70
2019-03-24T02:56:07.443Z,6.70
2019-03-24T02:57:07.462Z,6.40
2019-03-24T02:58:07.469Z,6.50
2019-03-24T02:59:07.484Z,5.60
2019-03-24T03:00:07.498Z,7.00
2019-03-24T03:01:07.516Z,5.80
2019-03-24T03:02:07.532Z,6.40
2019-03-24T03:03:07.607Z,6.70
2019-03-24T03:04:07.554Z,6.10
2019-03-24T03:05:07.556Z,5.90
2019-03-24T03:06:07.563Z,5.90
2019-03-24T03:07:07.581Z,6.10
2019-03-24T03:08:07.594Z,6.50
2019-03-24T03:09:07.595Z,6.10
2019-03-24T03:10:07.632Z,6.30
2019-03-24T03:11:07.622Z,6.20
2019-03-24T03:12:07.632Z,6.00
2019-03-24T03:13:07.645Z,6.50
2019-03-24T03:14:07.655Z,5.90
2019-03-24T03:15:07.664Z,6.10
2019-03-24T03:16:07.678Z,5.90
2019-03-24T03:17:07.696Z,6.60
2019-03-24T03:18:07.699Z,6.00
2019-03-24T03:19:10.345Z,7.00
2019-03-24T03:20:07.725Z,6.00
2019-03-24T03:21:07.737Z,6.20
2019-03-24T03:22:07.774Z,6.50
2019-03-24T03:23:07.762Z,6.40
2019-03-24T03:24:07.768Z,5.90
2019-03-24T03:25:07.787Z,5.90
2019-03-24T03:26:07.801Z,6.20
2019-03-24T03:27:07.802Z,6.70
2019-03-24T03:28:07.820Z,6.20
2019-03-24T03:29:07.838Z,5.90
2019-03-24T03:30:07.887Z,6.20
2019-03-24T03:31:07.855Z,6.00
2019-03-24T03:32:07.860Z,6.10
2019-03-24T03:33:07.879Z,6.10
2019-03-24T03:34:07.892Z,6.70
2019-03-24T03:35:07.945Z,5.90
2019-03-24T03:36:07.915Z,6.60
2019-03-24T03:37:07.917Z,6.50
2019-03-24T03:38:07.931Z,5.80
2019-03-24T03:39:07.954Z,6.00
2019-03-24T03:40:07.999Z,6.40
2019-03-24T03:41:08.000Z,6.70
2019-03-24T03:42:07.984Z,5.50
2019-03-24T03:43:08.002Z,6.20
2019-03-24T03:44:08.013Z,5.80
2019-03-24T03:45:08.011Z,6.90
2019-03-24T03:46:08.036Z,6.50
2019-03-24T03:47:08.046Z,7.10
2019-03-24T03:48:08.056Z,6.40
2019-03-24T03:49:08.071Z,6.30
2019-03-24T03:50:08.071Z,7.10
2019-03-24T03:51:08.091Z,6.60
2019-03-24T03:52:08.101Z,6.50
2019-03-24T03:53:08.109Z,6.90
2019-03-24T03:54:08.126Z,5.30
2019-03-24T03:55:08.125Z,6.40
2019-03-24T03:56:08.173Z,7.00
2019-03-24T03:57:08.151Z,6.30
2019-03-24T03:58:08.157Z,6.70
2019-03-24T03:59:08.198Z,7.20
2019-03-24T04:00:08.212Z,6.90
2019-03-24T04:01:08.216Z,6.50
2019-03-24T04:02:08.210Z,6.00
2019-03-24T04:03:08.225Z,6.50
2019-03-24T04:04:08.237Z,6.60
2019-03-24T04:05:08.240Z,6.50
2019-03-24T04:06:08.254Z,6.80
2019-03-24T04:07:08.277Z,6.60
2019-03-24T04:08:08.280Z,6.50
2019-03-24T04:09:08.292Z,6.60
2019-03-24T04:10:08.299Z,7.40
2019-03-24T04:11:08.309Z,6.60
2019-03-24T04:12:08.331Z,6.70
2019-03-24T04:13:08.338Z,6.80
2019-03-24T04:14:08.340Z,7.40
2019-03-24T04:15:08.355Z,6.90
2019-03-24T04:16:08.374Z,6.80
2019-03-24T04:17:08.399Z,6.90
2019-03-24T04:18:08.384Z,7.00
2019-03-24T04:19:08.399Z,6.40
2019-03-24T04:20:08.414Z,6.60
2019-03-24T04:21:08.434Z,6.30
2019-03-24T04:22:08.456Z,7.50
2019-03-24T04:23:08.451Z,6.30
2019-03-24T04:24:08.467Z,6.40
2019-03-24T04:25:08.476Z,6.10
2019-03-24T04:26:08.475Z,6.70
2019-03-24T04:27:08.487Z,7.10
2019-03-24T04:28:08.503Z,7.50
2019-03-24T04:29:08.511Z,8.30
2019-03-24T04:30:08.548Z,7.30
2019-03-24T04:31:08.533Z,7.30
2019-03-24T04:32:08.590Z,7.40
2019-03-24T04:33:08.557Z,7.00
2019-03-24T04:34:08.568Z,6.60
2019-03-24T04:35:08.584Z,7.60
2019-03-24T04:36:08.590Z,7.50
2019-03-24T04:37:08.617Z,7.20
2019-03-24T04:38:08.614Z,7.40
2019-03-24T04:39:08.624Z,7.40
2019-03-24T04:40:08.641Z,7.70
2019-03-24T04:41:08.645Z,6.90
2019-03-24T04:42:08.657Z,7.40
2019-03-24T04:43:08.668Z,6.80
2019-03-24T04:44:08.692Z,7.20
2019-03-24T04:45:08.691Z,7.10
2019-03-24T04:46:08.700Z,7.00
2019-03-24T04:47:16.334Z,7.10
2019-03-24T04:48:08.725Z,7.20
2019-03-24T04:49:08.740Z,7.70
2019-03-24T04:50:08.748Z,7.40
2019-03-24T04:51:08.763Z,8.00
2019-03-24T04:52:08.769Z,8.20
2019-03-24T04:53:08.780Z,7.70
2019-03-24T04:54:08.794Z,8.20
2019-03-24T04:55:08.811Z,7.90
2019-03-24T04:56:08.818Z,7.20
2019-03-24T04:57:08.834Z,7.70
2019-03-24T04:58:08.849Z,8.00
2019-03-24T04:59:08.870Z,7.90
2019-03-24T05:00:08.865Z,7.60
2019-03-24T05:01:08.912Z,7.80
2019-03-24T05:02:08.883Z,7.90
2019-03-24T05:03:08.899Z,8.00
2019-03-24T05:04:08.916Z,7.80
2019-03-24T05:05:08.917Z,8.50
2019-03-24T05:06:08.928Z,8.10
2019-03-24T05:07:08.943Z,8.20
2019-03-24T05:08:08.952Z,8.00
2019-03-24T05:09:08.957Z,8.80
2019-03-24T05:10:09.045Z,7.80
2019-03-24T05:11:08.986Z,7.80
2019-03-24T05:12:09.046Z,8.30
2019-03-24T05:13:09.037Z,8.40
2019-03-24T05:14:09.036Z,8.30
2019-03-24T05:15:09.026Z,8.70
2019-03-24T05:16:09.049Z,8.90
2019-03-24T05:17:09.052Z,8.50
2019-03-24T05:18:09.060Z,8.40
2019-03-24T05:19:09.073Z,8.40
2019-03-24T05:20:09.088Z,8.60
2019-03-24T05:21:09.093Z,8.10
2019-03-24T05:22:09.112Z,8.70
2019-03-24T05:23:09.129Z,8.40
2019-03-24T05:24:09.128Z,8.90
2019-03-24T05:25:09.135Z,9.80
2019-03-24T05:26:09.148Z,9.30
2019-03-24T05:27:09.170Z,8.80
2019-03-24T05:28:09.189Z,8.40
2019-03-24T05:29:09.198Z,9.10
2019-03-24T05:30:09.195Z,8.10
2019-03-24T05:31:09.204Z,8.80
2019-03-24T05:32:09.218Z,8.80
2019-03-24T05:33:09.240Z,8.20
2019-03-24T05:34:09.242Z,8.40
2019-03-24T05:35:09.259Z,8.90
2019-03-24T05:36:09.260Z,8.40
2019-03-24T05:37:09.278Z,8.70
2019-03-24T05:38:09.281Z,8.20
2019-03-24T05:39:09.292Z,8.20
2019-03-24T05:40:09.353Z,8.70
2019-03-24T05:41:09.343Z,9.10
2019-03-24T05:42:09.332Z,9.40
2019-03-24T05:43:09.337Z,8.90
2019-03-24T05:44:09.363Z,9.30
2019-03-24T05:45:09.359Z,9.00
2019-03-24T05:46:09.369Z,9.20
2019-03-24T05:47:09.390Z,8.80
2019-03-24T05:48:09.393Z,9.30
2019-03-24T05:49:09.402Z,9.70
2019-03-24T05:50:09.436Z,9.70
2019-03-24T05:51:09.434Z,8.90
2019-03-24T05:52:09.449Z,9.90
2019-03-24T05:53:09.453Z,9.10
2019-03-24T05:54:09.460Z,9.50
2019-03-24T05:55:09.482Z,9.50
2019-03-24T05:56:09.483Z,9.30
2019-03-24T05:57:09.493Z,9.10
2019-03-24T05:58:09.503Z,8.50
2019-03-24T05:59:09.523Z,10.00
2019-03-24T06:00:09.527Z,10.20
2019-03-24T06:01:09.543Z,10.50
2019-03-24T06:02:09.551Z,8.90
2019-03-24T06:03:09.635Z,10.20
2019-03-24T06:04:09.575Z,9.80
2019-03-24T06:05:09.583Z,10.20
2019-03-24T06:06:09.594Z,10.10
2019-03-24T06:07:09.642Z,10.10
2019-03-24T06:08:09.630Z,10.80
2019-03-24T06:09:09.631Z,9.90
2019-03-24T06:10:09.680Z,9.80
2019-03-24T06:11:09.651Z,10.70
2019-03-24T06:12:09.677Z,11.20
2019-03-24T06:13:09.697Z,10.50
2019-03-24T06:14:09.691Z,11.40
2019-03-24T06:15:09.706Z,11.70
2019-03-24T06:16:09.705Z,10.90
2019-03-24T06:17:09.725Z,12.00
2019-03-24T06:18:09.729Z,11.20
2019-03-24T06:19:09.739Z,12.40
2019-03-24T06:20:09.752Z,12.20
2019-03-24T06:21:09.768Z,12.00
2019-03-24T06:22:09.802Z,12.00
2019-03-24T06:23:09.789Z,12.40
2019-03-24T06:24:09.813Z,12.10
2019-03-24T06:25:09.808Z,12.10
2019-03-24T06:26:09.836Z,12.20
2019-03-24T06:27:09.856Z,12.20
2019-03-24T06:28:09.848Z,12.40
2019-03-24T06:29:09.877Z,12.60
2019-03-24T06:30:09.869Z,12.50
2019-03-24T06:31:09.891Z,13.40
2019-03-24T06:32:09.939Z,13.00
2019-03-24T06:33:09.914Z,13.20
2019-03-24T06:34:09.925Z,13.30
2019-03-24T06:35:09.914Z,12.10
2019-03-24T06:36:09.926Z,12.70
2019-03-24T06:37:09.945Z,13.70
2019-03-24T06:38:09.945Z,13.40
2019-03-24T06:39:09.960Z,12.70
2019-03-24T06:40:09.971Z,12.50
2019-03-24T06:41:09.980Z,13.50
2019-03-24T06:42:09.994Z,12.90
2019-03-24T06:43:10.003Z,13.70
2019-03-24T06:44:10.018Z,12.70
2019-03-24T06:45:10.023Z,13.10
2019-03-24T06:46:10.040Z,12.50
2019-03-24T06:47:10.053Z,13.30
2019-03-24T06:48:10.065Z,13.40
2019-03-24T06:49:10.068Z,12.10
2019-03-24T06:50:10.080Z,13.10
2019-03-24T06:51:10.109Z,12.60
2019-03-24T06:52:10.101Z,12.80
2019-03-24T06:53:10.111Z,13.30
2019-03-24T06:54:10.121Z,12.90
2019-03-24T06:55:10.154Z,13.10
2019-03-24T06:56:10.155Z,12.40
2019-03-24T06:57:10.157Z,12.80
2019-03-24T06:58:10.195Z,11.90
2019-03-24T06:59:10.184Z,13.40
2019-03-24T07:00:10.194Z,12.70
2019-03-24T07:01:10.204Z,12.40
2019-03-24T07:02:10.217Z,13.10
2019-03-24T07:03:10.225Z,12.30
2019-03-24T07:04:10.254Z,12.50
2019-03-24T07:05:10.249Z,12.90
2019-03-24T07:06:10.259Z,13.00
2019-03-24T07:07:10.272Z,12.10
2019-03-24T07:08:10.294Z,11.90
2019-03-24T07:09:10.294Z,11.90
2019-03-24T07:10:10.339Z,12.50
2019-03-24T07:11:13.657Z,12.30
2019-03-24T07:12:10.328Z,12.00
2019-03-24T07:13:10.342Z,13.70
2019-03-24T07:14:10.354Z,12.90
2019-03-24T07:15:10.365Z,12.20
2019-03-24T07:16:10.377Z,11.60
2019-03-24T07:17:10.389Z,11.20
2019-03-24T07:18:10.400Z,11.90
2019-03-24T07:19:10.410Z,11.60
2019-03-24T07:20:10.423Z,11.40
2019-03-24T07:21:10.439Z,12.40
2019-03-24T07:22:10.447Z,11.90
2019-03-24T07:23:10.453Z,11.20
2019-03-24T07:24:10.475Z,11.50
2019-03-24T07:25:10.483Z,10.90
2019-03-24T07:26:10.491Z,11.50
2019-03-24T07:27:10.502Z,10.50
2019-03-24T07:28:10.515Z,11.00
2019-03-24T07:29:10.607Z,11.10
2019-03-24T07:30:10.538Z,10.60
2019-03-24T07:31:10.546Z,11.40
2019-03-24T07:32:10.566Z,11.30
2019-03-24T07:33:10.573Z,11.60
2019-03-24T07:35:10.732Z,11.10
2019-03-24T07:36:10.624Z,11.00
2019-03-24T07:37:10.615Z,11.70
2019-03-24T07:38:10.632Z,11.70
2019-03-24T07:39:10.642Z,11.90
2019-03-24T07:40:10.657Z,11.70
2019-03-24T07:41:10.699Z,12.10
2019-03-24T07:42:10.676Z,12.10
2019-03-24T07:43:10.706Z,11.90
2019-03-24T07:44:10.901Z,12.40
2019-03-24T07:45:10.714Z,10.70
2019-03-24T07:46:11.088Z,11.00
2019-03-24T07:47:10.766Z,10.80
2019-03-24T07:48:18.667Z,10.50
2019-03-24T07:49:10.761Z,11.30
2019-03-24T07:50:10.769Z,11.10
2019-03-24T07:51:10.790Z,10.60
2019-03-24T07:52:10.800Z,10.90
2019-03-24T07:53:11.199Z,11.20
2019-03-24T07:54:10.826Z,11.00
2019-03-24T07:55:10.832Z,10.60
2019-03-24T07:56:10.843Z,10.40
2019-03-24T07:57:10.854Z,9.90
2019-03-24T07:58:10.872Z,11.20
2019-03-24T07:59:10.888Z,10.20
2019-03-24T08:00:10.891Z,10.40
2019-03-24T08:01:10.908Z,10.20
2019-03-24T08:02:10.918Z,10.80
2019-03-24T08:04:11.038Z,10.20
2019-03-24T08:05:11.267Z,10.70
2019-03-24T08:06:10.963Z,10.30
2019-03-24T08:07:10.975Z,11.00
2019-03-24T08:08:10.988Z,10.10
2019-03-24T08:09:11.001Z,10.30
2019-03-24T08:10:11.271Z,10.10
2019-03-24T08:11:11.025Z,9.90
2019-03-24T08:12:11.110Z,9.40
2019-03-24T08:13:11.049Z,10.00
2019-03-24T08:14:11.061Z,9.50
2019-03-24T08:15:11.281Z,9.60
2019-03-24T08:17:11.145Z,10.60
2019-03-24T08:18:11.113Z,10.10
2019-03-24T08:19:11.121Z,9.40
2019-03-24T08:20:12.296Z,10.50
2019-03-24T08:21:11.139Z,9.70
2019-03-24T08:22:11.178Z,9.70
2019-03-24T08:23:11.165Z,9.90
2019-03-24T08:24:11.185Z,10.00
2019-03-24T08:25:11.190Z,9.20
2019-03-24T08:26:11.243Z,9.00
2019-03-24T08:27:11.214Z,9.70
2019-03-24T08:28:11.241Z,9.60
2019-03-24T08:29:11.248Z,9.70
2019-03-24T08:30:11.316Z,9.70
2019-03-24T08:31:11.263Z,9.50
2019-03-24T08:32:11.274Z,9.60
2019-03-24T08:33:11.290Z,9.30
2019-03-24T08:34:11.303Z,9.30
2019-03-24T08:35:11.319Z,9.70
2019-03-24T08:36:11.321Z,9.20
2019-03-24T08:37:11.347Z,9.60
2019-03-24T08:38:11.343Z,9.70
2019-03-24T08:39:11.744Z,9.30
2019-03-24T08:40:11.387Z,9.60
2019-03-24T08:41:11.486Z,9.60
2019-03-24T08:43:11.441Z,8.80
2019-03-24T08:44:11.418Z,9.20
2019-03-24T08:45:11.434Z,8.90
2019-03-24T08:46:11.438Z,9.30
2019-03-24T08:47:11.505Z,9.20
2019-03-24T08:48:11.665Z,9.30
2019-03-24T08:50:11.498Z,10.00
2019-03-24T08:51:11.499Z,9.20
2019-03-24T08:52:11.513Z,9.40
2019-03-24T08:53:11.524Z,9.70
2019-03-24T08:54:11.536Z,9.30
2019-03-24T08:55:11.550Z,9.00
2019-03-24T08:56:11.568Z,9.90
2019-03-24T08:57:11.577Z,8.70
2019-03-24T08:58:11.593Z,9.00
2019-03-24T08:59:11.605Z,8.70
2019-03-24T09:00:11.614Z,8.40
2019-03-24T09:01:11.641Z,8.60
2019-03-24T09:02:11.635Z,9.10
2019-03-24T09:03:11.647Z,9.30
2019-03-24T09:04:11.664Z,8.40
2019-03-24T09:05:11.675Z,8.40
2019-03-24T09:06:11.686Z,8.30
2019-03-24T09:07:11.696Z,8.80
2019-03-24T09:08:11.734Z,8.90
2019-03-24T09:09:11.718Z,8.30
2019-03-24T09:10:11.742Z,8.40
2019-03-24T09:12:12.018Z,9.00
2019-03-24T09:13:11.815Z,8.90
2019-03-24T09:14:11.782Z,8.20
2019-03-24T09:15:11.795Z,8.30
2019-03-24T09:16:11.819Z,7.70
2019-03-24T09:17:11.969Z,8.00
2019-03-24T09:19:11.843Z,8.10
2019-03-24T09:20:11.864Z,8.50
2019-03-24T09:21:11.873Z,9.20
2019-03-24T09:22:11.885Z,8.70
2019-03-24T09:23:11.903Z,9.50
2019-03-24T09:24:11.906Z,10.10
2019-03-24T09:25:11.916Z,10.90
2019-03-24T09:26:11.967Z,10.90
2019-03-24T09:27:11.947Z,9.90
2019-03-24T09:28:11.957Z,10.40
2019-03-24T09:29:11.967Z,10.30
2019-03-24T09:30:11.981Z,10.40
2019-03-24T09:31:12.008Z,10.40
2019-03-24T09:32:12.007Z,9.90
2019-03-24T09:33:12.024Z,10.90
2019-03-24T09:34:12.028Z,10.30
2019-03-24T09:35:12.043Z,10.30
2019-03-24T09:36:12.057Z,10.20
2019-03-24T09:37:12.069Z,10.40
2019-03-24T09:38:12.134Z,10.90
2019-03-24T09:39:12.098Z,10.20
2019-03-24T09:40:12.314Z,10.00
2019-03-24T09:42:12.680Z,10.40
2019-03-24T09:43:12.219Z,9.90
2019-03-24T09:44:12.411Z,9.60
2019-03-24T09:45:12.176Z,10.80
2019-03-24T09:46:12.182Z,10.10
2019-03-24T09:47:12.198Z,10.30
2019-03-24T09:48:12.209Z,10.00
2019-03-24T09:49:12.231Z,9.60
2019-03-24T09:50:12.560Z,10.00
2019-03-24T09:51:12.433Z,9.80
2019-03-24T09:52:12.269Z,9.20
2019-03-24T09:53:12.272Z,9.50
2019-03-24T09:54:12.283Z,9.60
2019-03-24T09:55:12.299Z,8.70
2019-03-24T09:56:12.328Z,9.40
2019-03-24T09:57:12.319Z,8.90
2019-03-24T09:58:12.334Z,9.60
2019-03-24T09:59:12.666Z,8.50
2019-03-24T10:00:12.370Z,8.80
2019-03-24T10:01:12.382Z,8.50
2019-03-24T10:02:12.398Z,8.90
2019-03-24T10:03:12.404Z,9.10
2019-03-24T10:04:12.407Z,8.60
2019-03-24T10:05:12.431Z,9.20
2019-03-24T10:06:12.461Z,9.10
2019-03-24T10:07:12.476Z,8.90
2019-03-24T10:08:12.461Z,8.40
2019-03-24T10:09:12.474Z,9.20
2019-03-24T10:10:12.487Z,7.70
2019-03-24T10:11:12.564Z,8.20
2019-03-24T10:13:12.627Z,7.80
2019-03-24T10:14:12.620Z,7.00
2019-03-24T10:15:13.011Z,7.40
2019-03-24T10:16:12.573Z,7.60
2019-03-24T10:18:13.184Z,7.30
2019-03-24T10:20:12.635Z,7.70
2019-03-24T10:21:12.641Z,7.50
2019-03-24T10:22:12.665Z,6.90
2019-03-24T10:24:13.064Z,6.10
2019-03-24T10:25:12.698Z,5.90
2019-03-24T10:26:12.697Z,5.60
2019-03-24T10:27:12.710Z,5.70
2019-03-24T10:28:12.764Z,5.60
2019-03-24T10:29:12.733Z,5.30
2019-03-24T10:30:12.749Z,5.10
2019-03-24T10:31:12.759Z,4.50
2019-03-24T10:32:12.776Z,4.80
2019-03-24T10:33:12.792Z,4.30
2019-03-24T10:34:12.805Z,4.50
2019-03-24T10:35:12.813Z,4.50
2019-03-24T10:36:12.837Z,5.10
2019-03-24T10:37:12.843Z,4.20
2019-03-24T10:38:12.866Z,4.10
2019-03-24T10:39:12.872Z,3.70
2019-03-24T10:40:12.888Z,4.40
2019-03-24T10:41:12.917Z,3.20
2019-03-24T10:42:12.917Z,3.10
2019-03-24T10:43:12.929Z,4.40
2019-03-24T10:44:12.942Z,4.20
2019-03-24T10:45:12.951Z,4.70
2019-03-24T10:46:13.024Z,4.40
2019-03-24T10:47:13.055Z,4.80
2019-03-24T10:48:13.001Z,5.10
2019-03-24T10:49:13.205Z,4.70
2019-03-24T10:50:14.431Z,4.60
2019-03-24T10:51:13.040Z,4.90
2019-03-24T10:52:13.059Z,5.40
2019-03-24T10:53:13.183Z,5.00
2019-03-24T10:54:13.175Z,4.90
2019-03-24T10:56:13.156Z,5.20
2019-03-24T10:57:13.774Z,5.50
2019-03-24T10:58:13.214Z,4.60
2019-03-24T10:59:13.144Z,5.10
2019-03-24T11:00:13.162Z,4.40
2019-03-24T11:01:13.178Z,4.70
2019-03-24T11:02:13.195Z,4.30
2019-03-24T11:03:13.209Z,4.30
2019-03-24T11:04:13.223Z,3.90
2019-03-24T11:05:13.231Z,4.10
2019-03-24T11:06:13.246Z,3.90
2019-03-24T11:07:13.259Z,4.50
2019-03-24T11:08:13.289Z,3.80
2019-03-24T11:09:13.295Z,4.40
2019-03-24T11:10:13.309Z,4.10
2019-03-24T11:11:13.324Z,4.40
2019-03-24T11:12:13.329Z,4.10
2019-03-24T11:13:13.344Z,4.40
2019-03-24T11:14:13.370Z,4.30
2019-03-24T11:15:13.373Z,3.90
2019-03-24T11:16:13.390Z,4.30
2019-03-24T11:17:13.419Z,4.10
2019-03-24T11:18:13.782Z,4.40
2019-03-24T11:20:13.878Z,3.90
2019-03-24T11:23:13.646Z,4.40
2019-03-24T11:24:13.503Z,3.40
2019-03-24T11:25:13.525Z,3.60
2019-03-24T11:26:13.534Z,3.30
2019-03-24T11:27:13.595Z,3.50
2019-03-24T11:28:13.728Z,3.60
2019-03-24T11:29:13.602Z,4.10
2019-03-24T11:30:13.990Z,3.90
2019-03-24T11:31:13.602Z,4.10
2019-03-24T11:32:13.610Z,4.40
2019-03-24T11:33:13.634Z,3.80
2019-03-24T11:34:13.640Z,4.50
2019-03-24T11:35:13.656Z,4.00
2019-03-24T11:36:13.669Z,3.70
2019-03-24T11:37:13.686Z,3.40
2019-03-24T11:38:13.697Z,3.40
2019-03-24T11:39:13.715Z,3.50
2019-03-24T11:40:13.733Z,3.90
2019-03-24T11:41:13.745Z,3.40
2019-03-24T11:42:13.752Z,3.90
2019-03-24T11:43:13.769Z,3.90
2019-03-24T11:44:13.785Z,4.00
2019-03-24T11:45:14.206Z,4.00
2019-03-24T11:46:13.910Z,3.90
2019-03-24T11:47:13.827Z,4.20
2019-03-24T11:48:13.846Z,3.40
2019-03-24T11:49:13.871Z,3.90
2019-03-24T11:50:13.865Z,4.10
2019-03-24T11:51:13.882Z,4.10
2019-03-24T11:52:13.895Z,4.00
2019-03-24T11:54:14.114Z,4.50
2019-03-24T11:55:13.936Z,4.60
2019-03-24T11:56:13.958Z,4.40
2019-03-24T11:57:13.966Z,3.90
2019-03-24T11:58:13.980Z,3.90
2019-03-24T11:59:14.000Z,4.20
2019-03-24T12:00:14.008Z,3.90
2019-03-24T12:01:14.178Z,4.20
2019-03-24T12:03:14.057Z,3.60
2019-03-24T12:04:14.066Z,3.40
2019-03-24T12:05:14.080Z,3.30
2019-03-24T12:06:15.065Z,3.20
2019-03-24T12:07:14.122Z,3.20
2019-03-24T12:08:14.121Z,3.40
2019-03-24T12:09:14.134Z,3.30
2019-03-24T12:10:14.168Z,3.50
2019-03-24T12:11:14.163Z,3.40
2019-03-24T12:12:14.181Z,3.70
2019-03-24T12:13:14.190Z,3.60
2019-03-24T12:14:14.210Z,3.60
2019-03-24T12:15:14.226Z,3.20
2019-03-24T12:16:14.239Z,3.10
2019-03-24T12:17:14.251Z,3.40
2019-03-24T12:18:14.262Z,3.20
2019-03-24T12:19:14.279Z,3.40
2019-03-24T12:21:14.758Z,4.00
2019-03-24T12:22:14.325Z,3.60
2019-03-24T12:23:14.394Z,3.70
2019-03-24T12:24:14.346Z,3.30
2019-03-24T12:25:14.370Z,3.40
2019-03-24T12:26:14.636Z,3.30
2019-03-24T12:27:14.696Z,2.90
2019-03-24T12:28:14.401Z,3.00
2019-03-24T12:29:14.417Z,3.20
2019-03-24T12:30:14.433Z,3.20
2019-03-24T12:31:14.583Z,2.80
2019-03-24T12:32:15.606Z,2.30
2019-03-24T12:33:14.889Z,2.80
2019-03-24T12:34:14.520Z,3.10
2019-03-24T12:35:14.501Z,2.20
2019-03-24T12:37:14.569Z,2.10
2019-03-24T12:38:14.545Z,2.20
2019-03-24T12:39:14.561Z,2.20
2019-03-24T12:40:14.575Z,2.00
2019-03-24T12:41:14.585Z,2.00
2019-03-24T12:42:14.601Z,2.60
2019-03-24T12:43:19.342Z,2.60
2019-03-24T12:44:14.629Z,2.90
2019-03-24T12:45:14.646Z,2.50
2019-03-24T12:46:14.657Z,2.70
2019-03-24T12:47:14.676Z,2.70
2019-03-24T12:48:14.750Z,2.60
2019-03-24T12:49:14.765Z,3.00
2019-03-24T12:50:14.724Z,2.90
2019-03-24T12:51:14.740Z,2.40
2019-03-24T12:52:14.750Z,2.60
2019-03-24T12:53:14.757Z,2.90
2019-03-24T12:54:14.778Z,2.60
2019-03-24T12:55:14.787Z,2.50
2019-03-24T12:56:14.811Z,2.90
2019-03-24T12:57:14.810Z,2.50
2019-03-24T12:58:14.884Z,2.90
2019-03-24T12:59:15.450Z,3.10
2019-03-24T13:00:14.868Z,2.90
2019-03-24T13:01:14.867Z,2.60
2019-03-24T13:02:14.890Z,2.70
2019-03-24T13:03:14.893Z,1.90
2019-03-24T13:04:15.038Z,2.10
2019-03-24T13:06:14.954Z,2.30
2019-03-24T13:07:14.985Z,2.40
2019-03-24T13:08:14.972Z,2.70
2019-03-24T13:09:14.973Z,3.10
2019-03-24T13:10:14.999Z,3.40
2019-03-24T13:11:15.001Z,2.90
2019-03-24T13:12:15.039Z,3.20
2019-03-24T13:13:15.028Z,3.70
2019-03-24T13:14:15.048Z,3.40
2019-03-24T13:15:15.059Z,3.50
2019-03-24T13:16:15.150Z,3.30
2019-03-24T13:17:15.108Z,3.00
2019-03-24T13:18:15.111Z,3.60
2019-03-24T13:19:15.122Z,3.30
2019-03-24T13:20:22.742Z,4.20
2019-03-24T13:21:15.153Z,3.50
2019-03-24T13:22:15.165Z,3.10
2019-03-24T13:23:15.175Z,3.30
2019-03-24T13:24:15.188Z,3.60
2019-03-24T13:25:15.202Z,3.40
2019-03-24T13:26:15.816Z,3.70
2019-03-24T13:27:15.260Z,3.50
2019-03-24T13:28:15.235Z,2.90
2019-03-24T13:29:15.256Z,3.50
2019-03-24T13:30:15.286Z,3.60
2019-03-24T13:32:15.676Z,3.30
2019-03-24T13:33:15.310Z,3.60
2019-03-24T13:34:15.325Z,4.20
2019-03-24T13:35:15.332Z,3.60
2019-03-24T13:36:15.353Z,4.00